createdAt,value
2022-08-03T00:01:55.222Z,76.05
2022-08-03T00:04:58.249Z,76.18
2022-08-03T00:08:01.541Z,76.66
2022-08-03T00:11:08.587Z,76.75
2022-08-03T00:14:11.957Z,76.88
2022-08-03T00:17:14.550Z,76.85
2022-08-03T00:20:16.691Z,76.77
2022-08-03T00:23:18.724Z,77.07
2022-08-03T00:26:23.790Z,77.26
2022-08-03T00:29:26.072Z,77.31
2022-08-03T00:32:28.273Z,77.40
2022-08-03T00:35:37.001Z,77.21
2022-08-03T00:38:52.607Z,77.13
2022-08-03T00:41:54.613Z,77.39
2022-08-03T00:44:56.628Z,77.63
2022-08-03T00:48:00.090Z,77.51
2022-08-03T00:51:02.754Z,77.91
2022-08-03T00:54:05.188Z,78.42
2022-08-03T00:57:07.898Z,78.75
2022-08-03T01:00:12.472Z,78.88
2022-08-03T01:03:14.461Z,79.27
2022-08-03T01:06:19.895Z,78.80
2022-08-03T01:09:39.913Z,78.96
2022-08-03T01:12:46.531Z,80.15
2022-08-03T01:15:48.435Z,79.94
2022-08-03T01:19:02.659Z,79.78
2022-08-03T01:22:41.413Z,80.26
2022-08-03T01:26:06.216Z,80.32
2022-08-03T01:29:30.052Z,80.70
2022-08-03T01:33:00.579Z,80.75
2022-08-03T01:36:13.182Z,80.19
2022-08-03T01:39:17.075Z,80.86
2022-08-03T01:42:21.885Z,81.03
2022-08-03T01:45:24.955Z,81.23
2022-08-03T01:48:28.197Z,80.88
2022-08-03T01:52:03.161Z,81.20
2022-08-03T01:54:55.833Z,81.47
2022-08-03T01:58:05.655Z,81.29
2022-08-03T02:01:10.472Z,81.56
2022-08-03T02:04:15.648Z,82.40
2022-08-03T02:07:18.538Z,82.23
2022-08-03T02:10:34.371Z,82.56
2022-08-03T02:13:39.745Z,82.71
2022-08-03T02:16:45.476Z,82.56
2022-08-03T02:19:48.435Z,83.21
2022-08-03T02:22:50.466Z,83.03
2022-08-03T02:25:57.979Z,83.05
2022-08-03T02:29:07.146Z,83.16
2022-08-03T02:32:16.757Z,83.32
2022-08-03T02:35:22.626Z,83.58
2022-08-03T02:38:31.591Z,84.26
2022-08-03T02:41:38.402Z,85.14
2022-08-03T02:44:47.850Z,84.81
2022-08-03T02:47:54.017Z,84.98
2022-08-03T02:51:00.133Z,84.38
2022-08-03T02:54:04.057Z,84.45
2022-08-03T02:57:09.689Z,84.28
2022-08-03T03:00:13.239Z,84.36
2022-08-03T03:03:35.297Z,84.10
2022-08-03T03:06:47.173Z,84.46
2022-08-03T03:09:51.109Z,84.93
2022-08-03T03:12:56.277Z,84.68
2022-08-03T03:16:05.109Z,84.64
2022-08-03T03:19:17.052Z,84.80
2022-08-03T03:22:22.686Z,84.93
2022-08-03T03:25:25.195Z,84.88
2022-08-03T03:28:27.517Z,84.87
2022-08-03T03:31:29.868Z,84.96
2022-08-03T03:34:32.328Z,84.73
2022-08-03T03:37:35.366Z,84.86
2022-08-03T03:40:38.305Z,85.15
2022-08-03T03:43:40.477Z,85.57
2022-08-03T03:46:42.848Z,85.16
2022-08-03T03:49:45.560Z,85.24
2022-08-03T03:52:47.568Z,85.17
2022-08-03T03:55:58.984Z,85.33
2022-08-03T03:59:04.902Z,85.43
2022-08-03T04:02:09.272Z,85.30
2022-08-03T04:05:30.387Z,84.96
2022-08-03T04:08:50.806Z,85.30
2022-08-03T04:11:58.759Z,85.84
2022-08-03T04:15:02.641Z,85.30
2022-08-03T04:18:06.731Z,85.24
2022-08-03T04:21:12.853Z,85.34
2022-08-03T04:24:15.910Z,85.43
2022-08-03T04:27:23.497Z,85.01
2022-08-03T04:30:28.563Z,84.79
2022-08-03T04:33:34.905Z,84.79
2022-08-03T04:36:44.970Z,84.49
2022-08-03T04:39:50.054Z,84.39
2022-08-03T04:42:55.965Z,84.75
2022-08-03T04:45:59.763Z,84.37
2022-08-03T04:49:02.597Z,84.44
2022-08-03T04:52:07.589Z,84.45
2022-08-03T04:55:09.826Z,84.57
2022-08-03T04:58:12.746Z,84.32
2022-08-03T05:01:16.070Z,84.94
2022-08-03T05:04:18.579Z,84.82
2022-08-03T05:07:24.864Z,84.97
2022-08-03T05:10:27.355Z,84.49
2022-08-03T05:13:29.366Z,84.71
2022-08-03T05:16:31.562Z,84.78
2022-08-03T05:19:33.631Z,84.76
2022-08-03T05:22:35.725Z,84.60
2022-08-03T05:25:37.769Z,84.60
2022-08-03T05:28:50.816Z,84.64
2022-08-03T05:31:57.501Z,84.28
2022-08-03T05:35:00.423Z,84.38
2022-08-03T05:38:28.165Z,84.78
2022-08-03T05:41:37.071Z,84.64
2022-08-03T05:44:39.646Z,85.11
2022-08-03T05:47:44.381Z,84.62
2022-08-03T05:50:46.426Z,84.84
2022-08-03T05:53:48.403Z,84.82
2022-08-03T05:56:50.682Z,84.60
2022-08-03T05:59:54.792Z,84.58
2022-08-03T06:03:00.923Z,84.36
2022-08-03T06:06:03.007Z,84.41
2022-08-03T06:09:05.198Z,84.64
2022-08-03T06:12:10.089Z,84.57
2022-08-03T06:15:16.718Z,84.61
2022-08-03T06:18:18.871Z,84.58
2022-08-03T06:21:20.845Z,84.29
2022-08-03T06:24:25.105Z,84.21
2022-08-03T06:27:36.849Z,83.98
2022-08-03T06:30:39.936Z,83.65
2022-08-03T06:34:30.907Z,83.25
2022-08-03T06:37:03.992Z,82.79
2022-08-03T06:40:07.762Z,82.47
2022-08-03T06:43:12.492Z,81.83
2022-08-03T06:46:14.872Z,81.01
2022-08-03T06:49:17.162Z,81.05
2022-08-03T06:52:37.189Z,79.49
2022-08-03T06:55:42.311Z,78.01
2022-08-03T06:58:44.629Z,76.82
2022-08-03T07:01:52.874Z,76.01
2022-08-03T07:04:54.969Z,74.54
2022-08-03T07:08:02.047Z,73.43
2022-08-03T07:11:04.096Z,71.76
2022-08-03T07:14:06.520Z,70.48
2022-08-03T07:17:11.718Z,69.37
2022-08-03T07:20:15.394Z,68.05
2022-08-03T07:23:19.319Z,67.15
2022-08-03T07:26:21.606Z,64.96
2022-08-03T07:29:23.677Z,63.53
2022-08-03T07:32:26.525Z,62.18
2022-08-03T07:35:28.494Z,59.46
2022-08-03T07:38:30.508Z,57.51
2022-08-03T07:41:32.644Z,57.04
2022-08-03T07:44:34.769Z,54.58
2022-08-03T07:47:36.798Z,51.78
2022-08-03T07:50:38.775Z,50.28
2022-08-03T07:53:45.983Z,49.63
2022-08-03T07:56:49.800Z,48.21
2022-08-03T08:00:01.717Z,46.74
2022-08-03T08:03:13.965Z,43.66
2022-08-03T08:06:16.499Z,41.40
2022-08-03T08:09:18.473Z,40.08
2022-08-03T08:12:20.651Z,40.12
2022-08-03T08:15:23.140Z,40.77
2022-08-03T08:18:25.324Z,41.18
2022-08-03T08:21:53.262Z,39.95
2022-08-03T08:24:49.394Z,38.45
2022-08-03T08:28:31.450Z,37.56
2022-08-03T08:31:15.995Z,36.73
2022-08-03T08:34:18.038Z,37.07
2022-08-03T08:37:20.065Z,35.67
2022-08-03T08:40:23.091Z,34.62
2022-08-03T08:43:25.161Z,36.26
2022-08-03T08:46:27.747Z,36.19
2022-08-03T08:49:33.137Z,36.70
2022-08-03T08:52:35.927Z,35.08
2022-08-03T08:55:56.932Z,33.60
2022-08-03T08:59:02.972Z,33.83
2022-08-03T10:01:56.933Z,26.31
2022-08-03T10:04:58.913Z,25.06
2022-08-03T10:08:01.129Z,24.19
2022-08-03T10:11:03.129Z,23.16
2022-08-03T10:14:06.829Z,23.17
2022-08-03T10:17:09.890Z,22.35
2022-08-03T10:20:12.382Z,22.72
2022-08-03T10:23:17.054Z,23.55
2022-08-03T10:26:22.881Z,24.25
2022-08-03T10:29:28.544Z,22.57
2022-08-03T10:32:52.594Z,22.62
2022-08-03T10:35:59.518Z,22.81
2022-08-03T10:39:02.949Z,22.33
2022-08-03T10:42:18.164Z,22.09
2022-08-03T10:45:24.212Z,21.86
2022-08-03T10:48:26.804Z,21.04
2022-08-03T10:51:32.387Z,22.77
2022-08-03T10:54:37.437Z,23.47
2022-08-03T10:57:46.484Z,24.15
2022-08-03T11:00:51.307Z,22.07
2022-08-03T11:03:53.317Z,21.86
2022-08-03T11:07:25.345Z,19.95
2022-08-03T11:10:32.007Z,18.24
2022-08-03T11:13:34.213Z,18.97
2022-08-03T11:16:38.951Z,19.53
2022-08-03T11:19:57.023Z,19.44
2022-08-03T11:23:01.793Z,20.11
2022-08-03T11:26:22.745Z,18.85
2022-08-03T11:29:31.391Z,19.23
2022-08-03T11:32:46.857Z,19.08
2022-08-03T11:36:02.988Z,19.27
2022-08-03T11:39:16.678Z,19.18
2022-08-03T11:42:24.782Z,18.60
2022-08-03T11:45:27.209Z,18.32
2022-08-03T11:48:38.390Z,19.00
2022-08-03T11:51:41.057Z,18.81
2022-08-03T11:54:43.918Z,18.55
2022-08-03T11:59:00.904Z,18.34
2022-08-03T12:01:12.550Z,17.39
2022-08-03T12:04:16.519Z,18.04
2022-08-03T12:08:02.264Z,18.52
2022-08-03T12:10:47.747Z,17.78
2022-08-03T12:14:44.170Z,17.94
2022-08-03T12:17:13.362Z,18.05
2022-08-03T12:20:31.554Z,16.96
2022-08-03T12:23:38.368Z,17.47
2022-08-03T12:26:58.459Z,17.82
2022-08-03T12:30:02.478Z,17.88
2022-08-03T12:33:14.925Z,18.11
2022-08-03T12:36:17.301Z,17.85
2022-08-03T12:39:23.951Z,18.37
2022-08-03T12:42:36.820Z,18.40
2022-08-03T12:45:38.895Z,16.63
2022-08-03T12:49:00.517Z,17.80
2022-08-03T12:52:07.027Z,16.58
2022-08-03T12:55:21.831Z,15.92
2022-08-03T12:58:34.697Z,16.78
2022-08-03T13:01:55.305Z,16.92
2022-08-03T13:04:58.128Z,16.62
2022-08-03T13:08:00.220Z,16.49
2022-08-03T13:11:22.383Z,16.79
2022-08-03T13:14:24.403Z,17.44
2022-08-03T13:17:27.515Z,17.84
2022-08-03T13:20:29.620Z,17.43
2022-08-03T13:23:31.645Z,17.16
2022-08-03T13:26:33.559Z,16.13
2022-08-03T13:29:35.768Z,15.67
2022-08-03T13:32:37.769Z,16.46
2022-08-03T13:35:39.771Z,15.96
2022-08-03T13:38:41.801Z,15.72
2022-08-03T13:41:44.649Z,16.36
2022-08-03T13:44:46.694Z,15.09
2022-08-03T13:47:49.730Z,14.66
2022-08-03T13:50:51.742Z,14.00
2022-08-03T13:53:53.864Z,13.76
2022-08-03T13:57:00.368Z,13.25
2022-08-03T14:00:27.895Z,13.27
2022-08-03T14:03:30.820Z,14.76
2022-08-03T14:06:33.040Z,13.65
2022-08-03T14:09:35.137Z,14.48
2022-08-03T14:12:37.123Z,13.30
2022-08-03T14:15:39.188Z,11.89
2022-08-03T14:18:42.551Z,11.15
2022-08-03T14:21:46.275Z,10.99
2022-08-03T14:25:04.148Z,9.65
2022-08-03T14:28:06.132Z,10.26
2022-08-03T14:32:09.097Z,8.31
2022-08-03T14:34:30.371Z,8.23
2022-08-03T14:37:33.810Z,8.47
2022-08-03T14:40:35.978Z,9.26
2022-08-03T14:43:37.981Z,9.15
2022-08-03T14:46:39.992Z,9.01
2022-08-03T14:50:38.879Z,8.38
2022-08-03T14:53:04.992Z,9.05
2022-08-03T14:56:10.375Z,8.33
2022-08-03T14:59:12.823Z,9.32
2022-08-03T15:52:56.209Z,8.52
2022-08-03T15:55:59.824Z,9.28
2022-08-03T15:59:12.044Z,8.71
2022-08-03T16:02:16.128Z,9.25
2022-08-03T16:05:18.263Z,10.06
2022-08-03T16:08:20.552Z,11.99
2022-08-03T16:11:22.675Z,12.81
2022-08-03T16:14:34.235Z,14.29
2022-08-03T16:17:41.092Z,18.34
2022-08-03T16:20:45.122Z,20.51
2022-08-03T16:23:47.796Z,22.35
2022-08-03T16:26:50.141Z,22.79
2022-08-03T16:29:52.402Z,24.63
2022-08-03T16:32:54.527Z,25.42
2022-08-03T16:35:56.669Z,27.27
2022-08-03T16:38:58.741Z,26.51
2022-08-03T16:42:03.553Z,27.37
2022-08-03T16:45:07.638Z,27.46
2022-08-03T16:48:09.883Z,29.17
2022-08-03T16:51:11.915Z,31.09
2022-08-03T16:54:15.681Z,30.96
2022-08-03T16:57:55.999Z,33.20
2022-08-03T17:00:43.305Z,34.34
2022-08-03T17:03:57.383Z,34.58
2022-08-03T17:07:07.188Z,35.82
2022-08-03T17:10:12.484Z,37.06
2022-08-03T17:13:21.846Z,37.41
2022-08-03T17:16:24.690Z,37.93
2022-08-03T17:19:29.717Z,38.85
2022-08-03T17:22:34.793Z,39.36
2022-08-03T17:25:39.867Z,40.67
2022-08-03T17:29:12.655Z,41.20
2022-08-03T17:32:21.613Z,41.23
2022-08-03T17:35:23.979Z,42.62
2022-08-03T17:38:26.602Z,43.31
2022-08-03T17:41:34.051Z,44.38
2022-08-03T17:47:58.739Z,45.63
2022-08-03T17:51:07.849Z,45.86
2022-08-03T17:54:24.149Z,46.86
2022-08-03T17:57:29.153Z,47.58
2022-08-03T18:01:59.613Z,48.37
2022-08-03T18:04:44.327Z,48.60
2022-08-03T18:08:02.486Z,49.09
2022-08-03T18:11:09.746Z,49.24
2022-08-03T18:14:27.704Z,49.72
2022-08-03T18:17:54.714Z,49.86
2022-08-03T18:21:01.165Z,49.78
2022-08-03T18:24:07.895Z,50.31
2022-08-03T18:27:16.186Z,51.34
2022-08-03T18:30:21.783Z,51.00
2022-08-03T18:34:18.323Z,51.73
2022-08-03T18:36:55.939Z,52.03
2022-08-03T18:39:58.512Z,52.52
2022-08-03T18:43:08.879Z,52.62
2022-08-03T18:46:48.144Z,52.48
2022-08-03T18:50:19.255Z,53.21
2022-08-03T18:54:03.010Z,54.09
2022-08-03T18:57:07.616Z,53.83
2022-08-03T19:00:24.279Z,54.20
2022-08-03T19:03:43.583Z,53.72
2022-08-03T19:06:48.843Z,54.38
2022-08-03T19:09:56.162Z,54.34
2022-08-03T19:13:31.024Z,54.96
2022-08-03T19:16:41.883Z,54.98
2022-08-03T19:19:48.123Z,54.86
2022-08-03T19:22:52.394Z,54.68
2022-08-03T19:25:56.898Z,55.54
2022-08-03T19:28:59.486Z,56.38
2022-08-03T19:32:02.897Z,55.70
2022-08-03T19:35:13.345Z,56.00
2022-08-03T19:38:28.374Z,55.90
2022-08-03T19:41:42.335Z,55.98
2022-08-03T19:44:50.579Z,56.76
2022-08-03T19:48:08.033Z,57.33
2022-08-03T19:51:12.383Z,57.82
2022-08-03T19:54:16.320Z,57.95
2022-08-03T19:57:22.861Z,58.12
2022-08-03T20:00:34.055Z,58.06
2022-08-03T20:03:43.423Z,58.49
2022-08-03T20:06:47.448Z,59.14
2022-08-03T20:09:54.591Z,59.64
2022-08-03T20:12:59.899Z,59.96
2022-08-03T20:16:02.384Z,59.71
2022-08-03T20:19:05.326Z,60.07
2022-08-03T20:22:16.692Z,59.85
2022-08-03T20:25:25.260Z,60.24
2022-08-03T20:29:09.235Z,60.18
2022-08-03T20:32:13.136Z,60.80
2022-08-03T20:35:15.336Z,61.31
2022-08-03T20:38:19.652Z,61.62
2022-08-03T20:41:22.478Z,61.41
2022-08-03T20:44:25.737Z,61.87
2022-08-03T20:47:29.618Z,62.59
2022-08-03T20:50:35.047Z,62.32
2022-08-03T21:13:04.699Z,44.25
2022-08-03T21:53:10.870Z,65.53
2022-08-03T21:56:16.021Z,65.35
2022-08-03T21:59:20.185Z,65.52
2022-08-03T22:02:27.812Z,65.47
2022-08-03T22:05:43.482Z,65.71
2022-08-03T22:08:47.555Z,66.38
2022-08-03T22:11:54.308Z,66.56
2022-08-03T22:15:01.526Z,66.34
2022-08-03T22:18:04.948Z,66.55
2022-08-03T22:21:09.352Z,66.72
2022-08-03T22:24:11.796Z,66.81
2022-08-03T22:27:32.142Z,66.78
2022-08-03T22:30:35.242Z,67.03
2022-08-03T22:33:38.626Z,67.40
2022-08-03T22:36:40.849Z,67.63
2022-08-03T22:39:43.994Z,67.47
2022-08-03T22:42:49.513Z,67.73
2022-08-03T22:46:10.540Z,67.97
2022-08-03T22:49:15.352Z,68.09
2022-08-03T23:55:52.504Z,70.58
2022-08-03T23:59:26.996Z,70.91
